sensor_id;sensor_type;location;lat;lon;timestamp;pressure;altitude;pressure_sealevel;temperature;humidity
61963;BME280;47927;42.646;23.096;2023-02-20T00:01:52;92447.19;;;10.84;45.90
61963;BME280;47927;42.646;23.096;2023-02-20T00:04:18;92458.22;;;10.73;46.39
61963;BME280;47927;42.646;23.096;2023-02-20T00:06:44;92458.34;;;10.81;46.19
61963;BME280;47927;42.646;23.096;2023-02-20T00:09:09;92433.31;;;10.23;47.14
61963;BME280;47927;42.646;23.096;2023-02-20T00:11:36;92446.28;;;10.19;47.72
61963;BME280;47927;42.646;23.096;2023-02-20T00:14:01;92467.06;;;9.70;49.12
61963;BME280;47927;42.646;23.096;2023-02-20T00:16:27;92465.66;;;10.22;48.13
61963;BME280;47927;42.646;23.096;2023-02-20T00:18:52;92466.78;;;10.21;47.99
61963;BME280;47927;42.646;23.096;2023-02-20T00:21:18;92471.22;;;9.97;48.47
61963;BME280;47927;42.646;23.096;2023-02-20T00:23:43;92473.59;;;9.41;50.91
61963;BME280;47927;42.646;23.096;2023-02-20T00:26:11;92473.06;;;9.74;49.88
61963;BME280;47927;42.646;23.096;2023-02-20T00:28:41;92469.72;;;9.73;50.07
61963;BME280;47927;42.646;23.096;2023-02-20T00:31:13;92467.06;;;9.70;50.28
61963;BME280;47927;42.646;23.096;2023-02-20T00:33:39;92468.09;;;9.65;50.65
61963;BME280;47927;42.646;23.096;2023-02-20T00:36:05;92463.94;;;9.84;50.06
61963;BME280;47927;42.646;23.096;2023-02-20T00:38:30;92454.75;;;9.47;51.26
61963;BME280;47927;42.646;23.096;2023-02-20T00:40:56;92459.78;;;9.79;50.50
61963;BME280;47927;42.646;23.096;2023-02-20T00:43:21;92458.16;;;9.94;50.01
61963;BME280;47927;42.646;23.096;2023-02-20T00:45:47;92451.19;;;10.24;48.97
61963;BME280;47927;42.646;23.096;2023-02-20T00:48:13;92448.47;;;10.40;48.44
61963;BME280;47927;42.646;23.096;2023-02-20T00:50:39;92453.06;;;10.24;48.32
61963;BME280;47927;42.646;23.096;2023-02-20T00:53:05;92466.59;;;10.33;48.50
61963;BME280;47927;42.646;23.096;2023-02-20T00:55:30;92474.56;;;10.21;48.46
61963;BME280;47927;42.646;23.096;2023-02-20T00:57:56;92463.06;;;10.22;48.56
61963;BME280;47927;42.646;23.096;2023-02-20T01:00:27;92467.75;;;10.13;48.69
61963;BME280;47927;42.646;23.096;2023-02-20T01:02:54;92472.44;;;10.03;49.00
61963;BME280;47927;42.646;23.096;2023-02-20T01:05:22;92470.47;;;9.97;49.15
61963;BME280;47927;42.646;23.096;2023-02-20T01:07:48;92471.09;;;9.90;49.24
61963;BME280;47927;42.646;23.096;2023-02-20T01:10:13;92474.53;;;9.94;49.05
61963;BME280;47927;42.646;23.096;2023-02-20T01:12:39;92478.63;;;9.95;49.12
61963;BME280;47927;42.646;23.096;2023-02-20T01:15:06;92480.06;;;9.93;49.02
61963;BME280;47927;42.646;23.096;2023-02-20T01:17:32;92491.00;;;10.02;48.99
61963;BME280;47927;42.646;23.096;2023-02-20T01:19:58;92503.78;;;10.11;48.83
61963;BME280;47927;42.646;23.096;2023-02-20T01:22:23;92503.03;;;10.10;48.88
61963;BME280;47927;42.646;23.096;2023-02-20T01:24:49;92493.03;;;10.12;48.93
61963;BME280;47927;42.646;23.096;2023-02-20T01:27:15;92494.19;;;10.15;48.83
61963;BME280;47927;42.646;23.096;2023-02-20T01:29:40;92487.69;;;10.05;49.10
61963;BME280;47927;42.646;23.096;2023-02-20T01:32:06;92484.53;;;9.92;49.45
61963;BME280;47927;42.646;23.096;2023-02-20T01:34:31;92483.94;;;9.79;49.17
61963;BME280;47927;42.646;23.096;2023-02-20T01:36:57;92483.72;;;9.88;49.31
61963;BME280;47927;42.646;23.096;2023-02-20T01:39:27;92489.97;;;10.07;49.63
61963;BME280;47927;42.646;23.096;2023-02-20T01:42:00;92495.41;;;10.21;50.15
61963;BME280;47927;42.646;23.096;2023-02-20T01:44:30;92494.59;;;9.94;50.62
61963;BME280;47927;42.646;23.096;2023-02-20T01:46:59;92502.38;;;9.71;51.63
61963;BME280;47927;42.646;23.096;2023-02-20T01:49:49;92499.09;;;10.20;50.88
61963;BME280;47927;42.646;23.096;2023-02-20T01:52:20;92510.84;;;10.10;50.99
61963;BME280;47927;42.646;23.096;2023-02-20T01:55:19;92508.56;;;9.24;54.26
61963;BME280;47927;42.646;23.096;2023-02-20T01:57:53;92520.66;;;9.35;55.50
61963;BME280;47927;42.646;23.096;2023-02-20T02:00:21;92536.88;;;9.29;56.92
61963;BME280;47927;42.646;23.096;2023-02-20T02:05:20;92519.34;;;8.71;58.21
61963;BME280;47927;42.646;23.096;2023-02-20T02:07:51;92516.84;;;8.59;58.88
61963;BME280;47927;42.646;23.096;2023-02-20T02:10:20;92516.53;;;8.96;57.60
61963;BME280;47927;42.646;23.096;2023-02-20T02:12:50;92517.19;;;9.67;55.43
61963;BME280;47927;42.646;23.096;2023-02-20T02:15:19;92515.69;;;9.89;54.59
61963;BME280;47927;42.646;23.096;2023-02-20T02:17:53;92528.66;;;10.08;53.57
61963;BME280;47927;42.646;23.096;2023-02-20T02:20:57;92529.91;;;10.14;53.31
61963;BME280;47927;42.646;23.096;2023-02-20T02:29:14;92531.13;;;9.58;53.83
61963;BME280;47927;42.646;23.096;2023-02-20T02:40:42;92539.66;;;9.78;52.24
61963;BME280;47927;42.646;23.096;2023-02-20T02:43:17;92556.38;;;9.97;51.81
61963;BME280;47927;42.646;23.096;2023-02-20T02:45:54;92551.34;;;10.08;51.62
61963;BME280;47927;42.646;23.096;2023-02-20T02:48:39;92552.94;;;9.93;51.87
61963;BME280;47927;42.646;23.096;2023-02-20T02:51:24;92560.41;;;9.75;52.62
61963;BME280;47927;42.646;23.096;2023-02-20T02:56:38;92566.03;;;9.77;52.99
61963;BME280;47927;42.646;23.096;2023-02-20T02:59:06;92567.63;;;9.81;52.85
61963;BME280;47927;42.646;23.096;2023-02-20T03:01:36;92563.22;;;9.66;52.87
61963;BME280;47927;42.646;23.096;2023-02-20T03:04:06;92562.28;;;9.55;52.91
61963;BME280;47927;42.646;23.096;2023-02-20T03:06:36;92566.59;;;9.67;53.07
61963;BME280;47927;42.646;23.096;2023-02-20T03:09:38;92581.28;;;9.40;53.50
61963;BME280;47927;42.646;23.096;2023-02-20T03:11:57;92558.63;;;8.38;56.14
61963;BME280;47927;42.646;23.096;2023-02-20T03:14:34;92572.97;;;9.15;54.26
61963;BME280;47927;42.646;23.096;2023-02-20T03:18:32;92580.66;;;9.27;53.29
61963;BME280;47927;42.646;23.096;2023-02-20T03:20:25;92593.06;;;9.33;53.29
61963;BME280;47927;42.646;23.096;2023-02-20T03:22:58;92586.69;;;8.96;53.69
61963;BME280;47927;42.646;23.096;2023-02-20T03:25:29;92591.31;;;8.71;54.39
61963;BME280;47927;42.646;23.096;2023-02-20T03:27:59;92598.03;;;8.72;53.88
61963;BME280;47927;42.646;23.096;2023-02-20T03:30:42;92589.72;;;8.50;54.31
61963;BME280;47927;42.646;23.096;2023-02-20T03:36:30;92601.06;;;8.42;54.77
61963;BME280;47927;42.646;23.096;2023-02-20T03:39:21;92615.38;;;8.67;53.27
61963;BME280;47927;42.646;23.096;2023-02-20T03:42:08;92604.16;;;8.63;52.51
61963;BME280;47927;42.646;23.096;2023-02-20T03:45:03;92592.84;;;8.12;53.66
61963;BME280;47927;42.646;23.096;2023-02-20T03:47:30;92591.69;;;8.09;53.40
61963;BME280;47927;42.646;23.096;2023-02-20T03:50:00;92598.97;;;8.19;53.12
61963;BME280;47927;42.646;23.096;2023-02-20T03:52:26;92580.00;;;8.31;52.59
61963;BME280;47927;42.646;23.096;2023-02-20T03:54:52;92586.53;;;8.41;52.32
61963;BME280;47927;42.646;23.096;2023-02-20T03:57:31;92584.13;;;8.48;52.17
61963;BME280;47927;42.646;23.096;2023-02-20T04:00:02;92575.25;;;8.49;52.13
61963;BME280;47927;42.646;23.096;2023-02-20T04:02:43;92585.03;;;8.56;51.84
61963;BME280;47927;42.646;23.096;2023-02-20T04:05:18;92592.91;;;8.43;52.41
61963;BME280;47927;42.646;23.096;2023-02-20T04:08:07;92600.69;;;8.59;51.79
61963;BME280;47927;42.646;23.096;2023-02-20T04:10:37;92604.31;;;8.55;52.37
61963;BME280;47927;42.646;23.096;2023-02-20T04:13:05;92610.00;;;8.76;52.14
61963;BME280;47927;42.646;23.096;2023-02-20T04:15:32;92619.91;;;8.27;52.92
61963;BME280;47927;42.646;23.096;2023-02-20T04:18:08;92623.19;;;7.67;54.95
61963;BME280;47927;42.646;23.096;2023-02-20T04:20:34;92584.91;;;7.08;56.36
61963;BME280;47927;42.646;23.096;2023-02-20T04:23:23;92623.31;;;7.06;57.28
61963;BME280;47927;42.646;23.096;2023-02-20T04:26:08;92621.69;;;7.26;57.20
61963;BME280;47927;42.646;23.096;2023-02-20T04:28:39;92611.28;;;7.38;56.51
61963;BME280;47927;42.646;23.096;2023-02-20T04:31:06;92616.84;;;7.12;57.18
61963;BME280;47927;42.646;23.096;2023-02-20T04:33:34;92622.97;;;7.72;55.63
61963;BME280;47927;42.646;23.096;2023-02-20T04:36:05;92602.22;;;8.01;54.52
61963;BME280;47927;42.646;23.096;2023-02-20T04:38:30;92616.84;;;8.37;53.69
61963;BME280;47927;42.646;23.096;2023-02-20T04:40:57;92624.63;;;8.37;53.36
61963;BME280;47927;42.646;23.096;2023-02-20T04:43:23;92636.56;;;8.70;52.46
61963;BME280;47927;42.646;23.096;2023-02-20T04:45:49;92640.66;;;8.71;51.88
61963;BME280;47927;42.646;23.096;2023-02-20T04:48:17;92632.72;;;8.79;51.39
61963;BME280;47927;42.646;23.096;2023-02-20T04:50:42;92639.75;;;8.95;50.62
61963;BME280;47927;42.646;23.096;2023-02-20T04:53:10;92639.25;;;8.57;50.49
61963;BME280;47927;42.646;23.096;2023-02-20T04:55:35;92652.88;;;8.38;50.74
61963;BME280;47927;42.646;23.096;2023-02-20T04:58:06;92661.53;;;8.58;50.01
61963;BME280;47927;42.646;23.096;2023-02-20T05:00:46;92656.28;;;8.86;48.97
61963;BME280;47927;42.646;23.096;2023-02-20T05:03:11;92653.84;;;8.78;48.96
61963;BME280;47927;42.646;23.096;2023-02-20T05:05:37;92657.34;;;8.70;48.95
61963;BME280;47927;42.646;23.096;2023-02-20T05:08:04;92674.88;;;8.57;49.20
61963;BME280;47927;42.646;23.096;2023-02-20T05:10:32;92673.84;;;8.61;48.96
61963;BME280;47927;42.646;23.096;2023-02-20T05:12:58;92672.78;;;8.34;49.42
61963;BME280;47927;42.646;23.096;2023-02-20T05:15:25;92677.50;;;8.44;49.57
61963;BME280;47927;42.646;23.096;2023-02-20T05:17:51;92681.47;;;8.26;49.80
61963;BME280;47927;42.646;23.096;2023-02-20T05:20:17;92676.84;;;8.19;49.83
61963;BME280;47927;42.646;23.096;2023-02-20T05:22:47;92684.72;;;7.95;50.53
61963;BME280;47927;42.646;23.096;2023-02-20T05:25:16;92674.09;;;8.28;49.69
61963;BME280;47927;42.646;23.096;2023-02-20T05:27:41;92672.13;;;8.09;50.01
61963;BME280;47927;42.646;23.096;2023-02-20T05:30:08;92671.38;;;8.37;49.73
61963;BME280;47927;42.646;23.096;2023-02-20T05:32:34;92668.69;;;8.33;49.56
61963;BME280;47927;42.646;23.096;2023-02-20T05:35:00;92671.28;;;8.05;50.07
61963;BME280;47927;42.646;23.096;2023-02-20T05:37:26;92681.97;;;7.75;51.13
61963;BME280;47927;42.646;23.096;2023-02-20T05:39:52;92678.91;;;8.14;50.76
61963;BME280;47927;42.646;23.096;2023-02-20T05:42:18;92685.13;;;7.57;53.08
61963;BME280;47927;42.646;23.096;2023-02-20T05:44:44;92681.91;;;7.88;52.02
61963;BME280;47927;42.646;23.096;2023-02-20T05:47:10;92681.59;;;8.17;51.53
61963;BME280;47927;42.646;23.096;2023-02-20T05:49:35;92693.69;;;7.97;52.09
61963;BME280;47927;42.646;23.096;2023-02-20T05:52:02;92697.63;;;7.79;52.88
61963;BME280;47927;42.646;23.096;2023-02-20T05:54:28;92714.00;;;8.36;51.68
61963;BME280;47927;42.646;23.096;2023-02-20T05:56:54;92714.44;;;8.26;51.69
61963;BME280;47927;42.646;23.096;2023-02-20T05:59:21;92716.41;;;8.57;51.07
61963;BME280;47927;42.646;23.096;2023-02-20T06:01:47;92709.34;;;9.01;50.07
61963;BME280;47927;42.646;23.096;2023-02-20T06:04:17;92717.31;;;9.95;48.02
61963;BME280;47927;42.646;23.096;2023-02-20T06:06:43;92715.06;;;11.17;45.62
61963;BME280;47927;42.646;23.096;2023-02-20T06:09:11;92697.44;;;11.86;42.95
61963;BME280;47927;42.646;23.096;2023-02-20T06:11:39;92738.44;;;12.43;41.90
61963;BME280;47927;42.646;23.096;2023-02-20T06:14:06;92737.94;;;12.34;41.69
61963;BME280;47927;42.646;23.096;2023-02-20T06:16:33;92740.34;;;12.16;42.64
61963;BME280;47927;42.646;23.096;2023-02-20T06:18:59;92756.25;;;12.34;42.60
61963;BME280;47927;42.646;23.096;2023-02-20T06:21:25;92742.31;;;13.82;39.10
61963;BME280;47927;42.646;23.096;2023-02-20T06:23:52;92750.72;;;15.43;37.69
61963;BME280;47927;42.646;23.096;2023-02-20T06:26:19;92747.72;;;16.09;35.44
61963;BME280;47927;42.646;23.096;2023-02-20T06:28:45;92750.81;;;16.89;33.63
61963;BME280;47927;42.646;23.096;2023-02-20T06:31:20;92752.75;;;16.77;33.27
61963;BME280;47927;42.646;23.096;2023-02-20T06:33:46;92752.03;;;16.62;33.42
61963;BME280;47927;42.646;23.096;2023-02-20T06:36:20;92750.63;;;16.40;32.72
61963;BME280;47927;42.646;23.096;2023-02-20T06:38:46;92754.16;;;15.80;33.69
61963;BME280;47927;42.646;23.096;2023-02-20T06:41:12;92753.00;;;15.56;34.63
61963;BME280;47927;42.646;23.096;2023-02-20T06:43:37;92759.94;;;14.58;35.41
61963;BME280;47927;42.646;23.096;2023-02-20T06:46:03;92766.31;;;14.61;35.98
61963;BME280;47927;42.646;23.096;2023-02-20T06:48:28;92756.09;;;14.42;35.30
61963;BME280;47927;42.646;23.096;2023-02-20T06:50:54;92764.06;;;14.59;35.26
61963;BME280;47927;42.646;23.096;2023-02-20T06:53:21;92756.69;;;14.97;34.64
61963;BME280;47927;42.646;23.096;2023-02-20T06:55:46;92760.03;;;16.27;32.19
61963;BME280;47927;42.646;23.096;2023-02-20T06:58:12;92761.16;;;16.40;32.16
61963;BME280;47927;42.646;23.096;2023-02-20T07:00:37;92767.53;;;16.43;31.08
61963;BME280;47927;42.646;23.096;2023-02-20T07:03:03;92783.56;;;16.73;31.00
61963;BME280;47927;42.646;23.096;2023-02-20T07:05:28;92763.97;;;18.41;29.18
61963;BME280;47927;42.646;23.096;2023-02-20T07:07:54;92769.09;;;20.98;25.43
61963;BME280;47927;42.646;23.096;2023-02-20T07:10:20;92775.84;;;21.39;24.64
61963;BME280;47927;42.646;23.096;2023-02-20T07:12:45;92779.31;;;22.34;22.71
61963;BME280;47927;42.646;23.096;2023-02-20T07:15:11;92763.47;;;22.60;22.25
61963;BME280;47927;42.646;23.096;2023-02-20T07:17:37;92769.38;;;20.64;23.83
61963;BME280;47927;42.646;23.096;2023-02-20T07:20:03;92781.88;;;20.83;24.59
61963;BME280;47927;42.646;23.096;2023-02-20T07:22:29;92774.03;;;22.01;22.62
61963;BME280;47927;42.646;23.096;2023-02-20T07:24:55;92784.31;;;22.74;21.50
61963;BME280;47927;42.646;23.096;2023-02-20T07:27:21;92780.06;;;23.31;21.09
61963;BME280;47927;42.646;23.096;2023-02-20T07:29:48;92799.88;;;22.59;21.04
61963;BME280;47927;42.646;23.096;2023-02-20T07:32:14;92789.41;;;22.39;21.01
61963;BME280;47927;42.646;23.096;2023-02-20T07:34:47;92797.09;;;23.08;20.68
61963;BME280;47927;42.646;23.096;2023-02-20T07:37:14;92782.94;;;24.01;20.24
61963;BME280;47927;42.646;23.096;2023-02-20T07:39:40;92789.69;;;23.80;19.80
61963;BME280;47927;42.646;23.096;2023-02-20T07:42:06;92801.28;;;23.73;19.87
61963;BME280;47927;42.646;23.096;2023-02-20T07:44:57;92798.56;;;24.11;18.62
61963;BME280;47927;42.646;23.096;2023-02-20T07:47:23;92788.16;;;24.39;19.19
61963;BME280;47927;42.646;23.096;2023-02-20T07:49:48;92800.72;;;24.39;18.63
61963;BME280;47927;42.646;23.096;2023-02-20T07:52:14;92779.13;;;23.76;19.15
61963;BME280;47927;42.646;23.096;2023-02-20T07:54:39;92804.88;;;23.41;19.36
61963;BME280;47927;42.646;23.096;2023-02-20T07:57:05;92792.06;;;24.60;18.27
61963;BME280;47927;42.646;23.096;2023-02-20T07:59:30;92803.00;;;25.06;17.96
61963;BME280;47927;42.646;23.096;2023-02-20T08:01:56;92789.03;;;24.93;17.87
61963;BME280;47927;42.646;23.096;2023-02-20T08:04:21;92785.78;;;25.91;16.97
61963;BME280;47927;42.646;23.096;2023-02-20T08:06:47;92786.88;;;24.44;18.15
61963;BME280;47927;42.646;23.096;2023-02-20T08:09:12;92794.03;;;24.34;18.40
61963;BME280;47927;42.646;23.096;2023-02-20T08:11:38;92791.06;;;24.89;18.22
61963;BME280;47927;42.646;23.096;2023-02-20T08:14:05;92789.84;;;25.34;17.40
61963;BME280;47927;42.646;23.096;2023-02-20T08:16:31;92800.00;;;25.88;16.85
61963;BME280;47927;42.646;23.096;2023-02-20T08:18:58;92799.81;;;26.42;16.49
61963;BME280;47927;42.646;23.096;2023-02-20T08:21:23;92795.13;;;25.96;16.97
61963;BME280;47927;42.646;23.096;2023-02-20T08:23:49;92803.22;;;26.70;16.54
61963;BME280;47927;42.646;23.096;2023-02-20T08:26:17;92807.44;;;25.62;16.97
61963;BME280;47927;42.646;23.096;2023-02-20T08:28:43;92808.81;;;26.35;16.36
61963;BME280;47927;42.646;23.096;2023-02-20T08:31:08;92812.44;;;26.69;16.43
61963;BME280;47927;42.646;23.096;2023-02-20T08:33:34;92812.59;;;26.84;15.95
61963;BME280;47927;42.646;23.096;2023-02-20T08:35:59;92827.25;;;26.33;15.97
61963;BME280;47927;42.646;23.096;2023-02-20T08:38:35;92805.38;;;25.66;16.88
61963;BME280;47927;42.646;23.096;2023-02-20T08:41:05;92803.69;;;25.51;17.05
61963;BME280;47927;42.646;23.096;2023-02-20T08:43:33;92798.53;;;25.03;16.80
61963;BME280;47927;42.646;23.096;2023-02-20T08:45:59;92791.72;;;26.05;16.35
61963;BME280;47927;42.646;23.096;2023-02-20T08:48:24;92804.84;;;25.40;16.81
61963;BME280;47927;42.646;23.096;2023-02-20T08:50:50;92783.50;;;25.40;16.90
61963;BME280;47927;42.646;23.096;2023-02-20T08:53:16;92804.13;;;25.18;16.43
61963;BME280;47927;42.646;23.096;2023-02-20T08:55:42;92795.81;;;24.50;17.24
61963;BME280;47927;42.646;23.096;2023-02-20T08:58:07;92797.75;;;25.46;16.85
61963;BME280;47927;42.646;23.096;2023-02-20T09:00:33;92794.22;;;24.52;16.80
61963;BME280;47927;42.646;23.096;2023-02-20T09:02:58;92798.53;;;25.25;17.05
61963;BME280;47927;42.646;23.096;2023-02-20T09:05:24;92780.47;;;25.60;16.69
61963;BME280;47927;42.646;23.096;2023-02-20T09:07:50;92779.34;;;25.39;16.76
61963;BME280;47927;42.646;23.096;2023-02-20T09:10:20;92778.53;;;25.61;16.12
61963;BME280;47927;42.646;23.096;2023-02-20T09:12:46;92773.63;;;25.19;16.42
61963;BME280;47927;42.646;23.096;2023-02-20T09:15:13;92769.94;;;26.06;15.83
61963;BME280;47927;42.646;23.096;2023-02-20T09:17:43;92776.19;;;25.72;16.28
61963;BME280;47927;42.646;23.096;2023-02-20T09:20:10;92765.03;;;24.36;17.27
61963;BME280;47927;42.646;23.096;2023-02-20T09:22:36;92777.84;;;24.85;16.66
61963;BME280;47927;42.646;23.096;2023-02-20T09:25:02;92773.25;;;23.94;17.82
61963;BME280;47927;42.646;23.096;2023-02-20T09:27:29;92769.44;;;23.82;18.22
61963;BME280;47927;42.646;23.096;2023-02-20T09:29:54;92759.91;;;24.42;17.47
61963;BME280;47927;42.646;23.096;2023-02-20T09:32:20;92759.25;;;23.81;18.14
61963;BME280;47927;42.646;23.096;2023-02-20T09:34:45;92777.31;;;23.86;18.39
61963;BME280;47927;42.646;23.096;2023-02-20T09:37:11;92762.53;;;23.34;18.13
61963;BME280;47927;42.646;23.096;2023-02-20T09:39:38;92766.81;;;23.44;18.69
61963;BME280;47927;42.646;23.096;2023-02-20T09:47:42;92761.06;;;23.71;17.52
61963;BME280;47927;42.646;23.096;2023-02-20T09:50:14;92781.78;;;22.70;18.60
61963;BME280;47927;42.646;23.096;2023-02-20T09:52:45;92773.13;;;21.43;20.08
61963;BME280;47927;42.646;23.096;2023-02-20T09:55:18;92776.44;;;21.79;19.34
61963;BME280;47927;42.646;23.096;2023-02-20T09:57:48;92757.06;;;21.13;20.03
61963;BME280;47927;42.646;23.096;2023-02-20T10:00:29;92762.41;;;19.87;21.15
61963;BME280;47927;42.646;23.096;2023-02-20T10:03:17;92761.72;;;19.83;21.12
61963;BME280;47927;42.646;23.096;2023-02-20T10:05:44;92768.94;;;19.55;21.65
61963;BME280;47927;42.646;23.096;2023-02-20T10:08:11;92758.16;;;19.19;21.08
61963;BME280;47927;42.646;23.096;2023-02-20T10:10:38;92760.34;;;19.74;20.86
61963;BME280;47927;42.646;23.096;2023-02-20T10:21:07;92759.97;;;20.19;20.49
61963;BME280;47927;42.646;23.096;2023-02-20T10:23:50;92744.47;;;19.24;20.42
61963;BME280;47927;42.646;23.096;2023-02-20T10:26:21;92746.50;;;18.85;22.34
61963;BME280;47927;42.646;23.096;2023-02-20T10:28:48;92748.50;;;19.05;20.70
61963;BME280;47927;42.646;23.096;2023-02-20T10:31:25;92737.59;;;18.04;21.93
61963;BME280;47927;42.646;23.096;2023-02-20T10:34:07;92743.59;;;17.59;23.34
61963;BME280;47927;42.646;23.096;2023-02-20T10:36:43;92737.47;;;17.73;23.00
61963;BME280;47927;42.646;23.096;2023-02-20T10:39:14;92727.88;;;17.93;23.00
61963;BME280;47927;42.646;23.096;2023-02-20T10:41:51;92727.50;;;17.50;23.13
61963;BME280;47927;42.646;23.096;2023-02-20T10:44:35;92735.56;;;16.51;24.77
61963;BME280;47927;42.646;23.096;2023-02-20T10:50:00;92708.63;;;16.15;26.23
61963;BME280;47927;42.646;23.096;2023-02-20T10:52:30;92697.84;;;15.13;27.57
61963;BME280;47927;42.646;23.096;2023-02-20T10:55:12;92729.69;;;15.08;27.00
61963;BME280;47927;42.646;23.096;2023-02-20T10:57:45;92729.00;;;15.32;26.36
61963;BME280;47927;42.646;23.096;2023-02-20T11:00:16;92716.22;;;15.13;27.21
61963;BME280;47927;42.646;23.096;2023-02-20T11:02:56;92718.84;;;15.84;26.81
61963;BME280;47927;42.646;23.096;2023-02-20T11:05:27;92724.09;;;15.48;26.63
61963;BME280;47927;42.646;23.096;2023-02-20T11:07:55;92724.84;;;15.24;27.08
61963;BME280;47927;42.646;23.096;2023-02-20T11:10:20;92718.47;;;15.39;26.38
61963;BME280;47927;42.646;23.096;2023-02-20T11:12:51;92693.91;;;14.35;27.52
61963;BME280;47927;42.646;23.096;2023-02-20T11:15:23;92707.50;;;14.62;27.41
61963;BME280;47927;42.646;23.096;2023-02-20T11:17:54;92716.94;;;14.95;26.87
61963;BME280;47927;42.646;23.096;2023-02-20T11:23:06;92703.94;;;14.19;27.76
61963;BME280;47927;42.646;23.096;2023-02-20T11:25:38;92680.56;;;14.76;27.56
61963;BME280;47927;42.646;23.096;2023-02-20T11:28:17;92697.84;;;14.91;27.90
61963;BME280;47927;42.646;23.096;2023-02-20T11:30:44;92705.72;;;15.34;26.79
61963;BME280;47927;42.646;23.096;2023-02-20T11:33:14;92725.97;;;15.62;26.88
61963;BME280;47927;42.646;23.096;2023-02-20T11:35:43;92732.34;;;15.36;26.82
61963;BME280;47927;42.646;23.096;2023-02-20T11:40:46;92721.84;;;15.36;26.38
61963;BME280;47927;42.646;23.096;2023-02-20T11:45:37;92729.97;;;14.56;27.74
61963;BME280;47927;42.646;23.096;2023-02-20T11:48:12;92737.97;;;15.17;26.59
61963;BME280;47927;42.646;23.096;2023-02-20T11:56:14;92736.84;;;14.12;27.28
61963;BME280;47927;42.646;23.096;2023-02-20T11:58:42;92731.34;;;13.62;28.40
61963;BME280;47927;42.646;23.096;2023-02-20T12:01:35;92719.91;;;13.33;28.53
61963;BME280;47927;42.646;23.096;2023-02-20T12:04:18;92719.00;;;13.59;28.82
61963;BME280;47927;42.646;23.096;2023-02-20T12:06:43;92706.53;;;13.42;28.77
61963;BME280;47927;42.646;23.096;2023-02-20T12:09:13;92677.56;;;13.24;29.67
61963;BME280;47927;42.646;23.096;2023-02-20T12:11:40;92705.13;;;13.11;29.71
61963;BME280;47927;42.646;23.096;2023-02-20T12:14:11;92702.38;;;14.00;28.56
61963;BME280;47927;42.646;23.096;2023-02-20T12:19:19;92691.66;;;13.57;29.55
61963;BME280;47927;42.646;23.096;2023-02-20T12:22:03;92685.75;;;13.71;29.56
61963;BME280;47927;42.646;23.096;2023-02-20T12:24:57;92702.44;;;13.48;29.26
61963;BME280;47927;42.646;23.096;2023-02-20T12:30:10;92702.09;;;13.53;28.89
61963;BME280;47927;42.646;23.096;2023-02-20T12:32:57;92724.09;;;13.00;29.67
61963;BME280;47927;42.646;23.096;2023-02-20T12:35:29;92717.66;;;13.35;29.18
61963;BME280;47927;42.646;23.096;2023-02-20T12:52:00;92727.69;;;13.74;29.26
61963;BME280;47927;42.646;23.096;2023-02-20T12:54:47;92705.66;;;13.82;29.44
61963;BME280;47927;42.646;23.096;2023-02-20T12:57:23;92695.66;;;12.95;30.82
61963;BME280;47927;42.646;23.096;2023-02-20T13:00:03;92696.66;;;12.84;30.89
61963;BME280;47927;42.646;23.096;2023-02-20T13:02:43;92685.72;;;12.37;32.03
61963;BME280;47927;42.646;23.096;2023-02-20T13:05:13;92691.69;;;12.04;32.66
61963;BME280;47927;42.646;23.096;2023-02-20T13:07:46;92689.91;;;12.42;31.25
61963;BME280;47927;42.646;23.096;2023-02-20T13:10:24;92695.56;;;12.14;32.99
61963;BME280;47927;42.646;23.096;2023-02-20T13:12:50;92694.88;;;12.54;32.23
61963;BME280;47927;42.646;23.096;2023-02-20T13:18:17;92691.41;;;11.82;32.74
61963;BME280;47927;42.646;23.096;2023-02-20T13:20:48;92684.00;;;12.15;33.03
61963;BME280;47927;42.646;23.096;2023-02-20T13:25:43;92697.03;;;12.11;33.11
61963;BME280;47927;42.646;23.096;2023-02-20T13:30:38;92670.19;;;12.14;33.00
61963;BME280;47927;42.646;23.096;2023-02-20T13:33:21;92689.69;;;11.90;33.03
61963;BME280;47927;42.646;23.096;2023-02-20T13:35:53;92696.59;;;11.79;33.39
61963;BME280;47927;42.646;23.096;2023-02-20T13:38:21;92706.41;;;11.85;33.44
61963;BME280;47927;42.646;23.096;2023-02-20T13:43:35;92722.47;;;12.18;33.25
61963;BME280;47927;42.646;23.096;2023-02-20T13:53:50;92747.09;;;11.63;34.55
61963;BME280;47927;42.646;23.096;2023-02-20T13:56:22;92744.03;;;11.58;34.80
61963;BME280;47927;42.646;23.096;2023-02-20T13:58:49;92734.06;;;10.94;35.83
61963;BME280;47927;42.646;23.096;2023-02-20T14:01:16;92698.22;;;10.88;35.92
61963;BME280;47927;42.646;23.096;2023-02-20T14:03:42;92718.94;;;11.27;35.16
61963;BME280;47927;42.646;23.096;2023-02-20T14:06:15;92707.78;;;10.80;36.21
61963;BME280;47927;42.646;23.096;2023-02-20T14:08:43;92698.88;;;10.62;36.30
61963;BME280;47927;42.646;23.096;2023-02-20T14:11:13;92701.00;;;10.33;37.08
61963;BME280;47927;42.646;23.096;2023-02-20T14:13:44;92696.72;;;10.44;37.23
61963;BME280;47927;42.646;23.096;2023-02-20T14:16:34;92675.59;;;10.11;37.88
61963;BME280;47927;42.646;23.096;2023-02-20T14:19:11;92675.28;;;10.12;38.04
61963;BME280;47927;42.646;23.096;2023-02-20T14:21:39;92677.03;;;10.08;38.16
61963;BME280;47927;42.646;23.096;2023-02-20T14:24:30;92696.56;;;9.98;38.29
61963;BME280;47927;42.646;23.096;2023-02-20T14:26:56;92691.72;;;10.16;37.67
61963;BME280;47927;42.646;23.096;2023-02-20T14:29:33;92716.13;;;10.89;36.48
61963;BME280;47927;42.646;23.096;2023-02-20T14:32:01;92720.34;;;11.21;35.53
61963;BME280;47927;42.646;23.096;2023-02-20T14:34:55;92736.91;;;11.55;35.11
61963;BME280;47927;42.646;23.096;2023-02-20T14:40:26;92704.75;;;11.51;34.92
61963;BME280;47927;42.646;23.096;2023-02-20T14:42:59;92726.72;;;11.00;35.68